Friday, December 14, 2018, 6:57 PM EST
Back to Local

KORE, Orange, Orange Municipal Airport

Location: Orange, MA, United States Lat: 42.572
Local Time: 6:57 PM EST (23:57 GMT) Lon: -72.278
Time Zone: US/Eastern Elev: 554 ft

Show me the last for .
Show Coded

Time T Td Feel RH Dir Speed Gust Alt SLP Vis Weather Sky Remarks
2018-12-14 17:52 41 32 38 70 180° 5 - 30.33 30.35 10 OVC027 None
2018-12-14 16:52 42 32 - 67 - Calm - 30.35 30.37 10 OVC029 None
2018-12-14 15:52 42 31 40 64 170° 3 - 30.37 30.39 10 OVC026 None
2018-12-14 15:21 42 31 38 64 170° 7 - 30.36 - 10 BKN028 OVC034 None
2018-12-14 14:52 43 32 39 64 190° 7 - 30.37 30.39 10 BKN035 None
2018-12-14 13:52 43 32 37 64 190° 10 - 30.37 30.39 10 OVC047 None
2018-12-14 13:26 43 33 39 67 170° 7 - 30.38 - 10 SCT021 OVC048 None
2018-12-14 12:52 41 33 37 73 Variable 6 - 30.40 30.42 10 BKN020 OVC025 6-hr Min Temp (1pm): 28.9°F
6-hr Max Temp (1pm): 41.0°F
2018-12-14 12:25 41 32 36 70 180° 7 - 30.42 - 10 BKN019 BKN050 None
2018-12-14 11:59 39 31 36 72 140° 5 - 30.44 - 10 SCT015 BKN050 None
2018-12-14 11:52 39 31 37 72 150° 3 - 30.44 30.46 10 BKN015 OVC049 None
2018-12-14 11:50 39 30 36 69 140° 5 - 30.44 - 10 BKN015 OVC049 None
2018-12-14 10:52 36 29 33 75 170° 3 - 30.50 30.52 10 OVC012 None
2018-12-14 09:52 33 25 - 71 - Calm - 30.52 30.54 10 OVC012 None
2018-12-14 08:52 31 23 - 72 - Calm - 30.52 30.54 10 OVC014 None
2018-12-14 08:39 30 23 26 74 300° 3 - 30.52 - 10 BKN014 OVC038 None
2018-12-14 07:52 29 22 - 74 - Calm - 30.51 30.53 10 OVC035 None
2018-12-14 06:52 29 22 - 74 - Calm - 30.50 30.52 10 OVC036 6-hr Min Temp (7am): 28.0°F
6-hr Max Temp (7am): 28.9°F
2018-12-14 05:52 29 22 - 74 - Calm - 30.49 30.52 10 OVC036 None
2018-12-14 05:24 29 22 - 74 - Calm - 30.50 - 10 SCT017 OVC035 None
2018-12-14 04:52 29 21 - 71 - Calm - 30.50 30.52 10 OVC017 None
2018-12-14 03:52 29 21 - 71 - Calm - 30.50 30.52 10 OVC017 None
2018-12-14 02:52 28 21 - 74 - Calm - 30.52 30.54 10 OVC017 None
2018-12-14 01:52 28 21 - 74 - Calm - 30.53 30.56 10 OVC018 None
2018-12-14 00:52 28 21 - 74 - Calm - 30.55 30.57 10 OVC021 6-hr Min Temp (1am): 25.0°F
6-hr Max Temp (1am): 28.0°F
2018-12-13 23:52 28 21 - 74 - Calm - 30.54 30.56 10 OVC022 24-hr Min Temp (12am): 9.0°F
24-hr Max Temp (12am): 28.9°F
2018-12-13 22:52 28 20 - 71 - Calm - 30.55 30.57 10 OVC022 None
2018-12-13 21:52 27 21 23 77 170° 3 - 30.54 30.56 10 OVC023 None
2018-12-13 20:52 27 21 - 77 - Calm - 30.55 30.58 10 OVC025 None
2018-12-13 19:52 26 21 - 80 - Calm - 30.54 30.57 10 OVC025 None

Support USWX by starting your Amazon purchase here.